X  Cerrar Datos meteorológicos de aviación METAR     LYNI Nis Airport
Temperatura
31°C Temperatura
13°C Punto de rocío
33% Humedad



Viento
6 M/S
14 MPH
23 KM/H
12 NUDO



320°
NO
Condiciones actuales

Parcialmente nublado Parcialmente nublado
Presión 1011.92 (hPa) - 29.88 (inHg)
Visibilidad 6.2 (milla) - 10 (km)
Aeropuerto
Código de aeropuerto LYNI

localidad: Nis Airport
Distancia: 63 (km)

Metar:
LYNI 171200Z 32012KT 280V350 9999 FEW040 31/13 Q1012 NOSIG

Hora: 17-08-2022 14:00 CEST